createdAt,value
2022-08-18T00:00:22.925Z,99.99
2022-08-18T00:01:22.432Z,99.99
2022-08-18T00:02:28.134Z,99.99
2022-08-18T00:03:54.029Z,99.99
2022-08-18T00:04:35.151Z,99.86
2022-08-18T00:05:23.763Z,99.76
2022-08-18T00:06:22.429Z,99.96
2022-08-18T00:07:22.822Z,99.96
2022-08-18T00:08:22.368Z,99.99
2022-08-18T00:09:22.329Z,99.99
2022-08-18T00:10:22.655Z,99.99
2022-08-18T00:11:22.278Z,99.99
2022-08-18T00:12:22.289Z,99.99
2022-08-18T00:13:22.271Z,99.99
2022-08-18T00:14:22.962Z,99.99
2022-08-18T00:15:22.238Z,99.99
2022-08-18T00:16:22.605Z,99.99
2022-08-18T00:17:22.225Z,99.99
2022-08-18T00:18:23.897Z,99.99
2022-08-18T00:19:43.431Z,99.99
2022-08-18T00:20:23.198Z,99.99
2022-08-18T00:21:22.175Z,99.99
2022-08-18T00:22:22.566Z,99.99
2022-08-18T00:23:22.116Z,99.99
2022-08-18T00:24:22.147Z,99.99
2022-08-18T00:25:22.126Z,99.99
2022-08-18T00:26:22.087Z,99.99
2022-08-18T00:27:22.937Z,99.99
2022-08-18T00:28:24.105Z,99.99
2022-08-18T00:29:22.056Z,99.99
2022-08-18T00:30:22.361Z,99.99
2022-08-18T00:31:22.125Z,99.99
2022-08-18T00:32:22.005Z,99.99
2022-08-18T00:33:22.010Z,99.99
2022-08-18T00:34:22.424Z,99.99
2022-08-18T00:35:21.967Z,99.99
2022-08-18T00:36:21.952Z,99.99
2022-08-18T00:37:21.948Z,99.99
2022-08-18T00:38:24.493Z,99.99
2022-08-18T00:39:22.325Z,99.99
2022-08-18T00:40:22.043Z,99.99
2022-08-18T00:41:21.932Z,99.99
2022-08-18T00:42:26.973Z,99.99
2022-08-18T00:43:22.873Z,99.99
2022-08-18T00:44:21.874Z,99.99
2022-08-18T00:45:22.195Z,99.99
2022-08-18T00:46:21.806Z,99.99
2022-08-18T00:47:41.402Z,99.99
2022-08-18T00:48:23.971Z,99.99
2022-08-18T00:49:21.842Z,99.99
2022-08-18T00:50:21.953Z,99.99
2022-08-18T00:51:22.114Z,99.99
2022-08-18T00:52:21.743Z,99.99
2022-08-18T00:53:21.733Z,99.99
2022-08-18T00:54:21.733Z,99.99
2022-08-18T00:55:21.769Z,99.99
2022-08-18T00:56:21.685Z,99.99
2022-08-18T00:57:22.000Z,99.99
2022-08-18T00:58:21.681Z,99.99
2022-08-18T00:59:21.648Z,99.99
2022-08-18T01:00:21.644Z,99.99
2022-08-18T01:01:21.641Z,99.99
2022-08-18T01:02:22.051Z,99.99
2022-08-18T01:03:24.752Z,99.99
2022-08-18T01:04:21.590Z,99.99
2022-08-18T01:05:21.739Z,99.99
2022-08-18T01:06:21.673Z,99.99
2022-08-18T01:07:22.011Z,99.99
2022-08-18T01:08:28.751Z,99.99
2022-08-18T01:09:22.570Z,99.99
2022-08-18T01:10:21.505Z,99.99
2022-08-18T01:11:21.500Z,99.99
2022-08-18T01:12:44.165Z,99.99
2022-08-18T01:13:22.887Z,99.99
2022-08-18T01:14:21.476Z,99.99
2022-08-18T01:15:28.981Z,99.99
2022-08-18T01:16:22.420Z,99.99
2022-08-18T01:17:21.429Z,99.99
2022-08-18T01:18:21.749Z,99.99
2022-08-18T01:19:21.407Z,99.99
2022-08-18T01:20:21.389Z,99.99
2022-08-18T01:21:21.347Z,99.99
2022-08-18T01:22:21.788Z,99.99
2022-08-18T01:23:21.319Z,99.99
2022-08-18T01:24:21.961Z,99.99
2022-08-18T01:25:21.301Z,99.99
2022-08-18T01:26:21.298Z,99.99
2022-08-18T01:27:21.697Z,99.99
2022-08-18T01:28:21.279Z,99.99
2022-08-18T01:29:21.238Z,99.99
2022-08-18T01:30:21.277Z,99.99
2022-08-18T01:31:21.209Z,99.99
2022-08-18T01:32:21.218Z,99.99
2022-08-18T01:33:21.667Z,99.99
2022-08-18T01:34:22.177Z,99.99
2022-08-18T01:35:21.188Z,99.99
2022-08-18T01:36:21.258Z,99.99
2022-08-18T01:37:21.529Z,99.99
2022-08-18T01:38:21.123Z,99.99
2022-08-18T01:41:22.005Z,99.99
2022-08-18T01:41:24.474Z,99.99
2022-08-18T01:41:29.785Z,99.99
2022-08-18T01:42:22.508Z,99.99
2022-08-18T01:43:21.063Z,99.99
2022-08-18T01:44:21.065Z,99.99
2022-08-18T01:45:21.051Z,99.99
2022-08-18T01:46:21.160Z,99.99
2022-08-18T01:47:21.448Z,99.99
2022-08-18T01:48:21.005Z,99.99
2022-08-18T01:49:20.998Z,99.99
2022-08-18T01:50:20.976Z,99.99
2022-08-18T01:51:20.973Z,99.99
2022-08-18T01:52:22.374Z,99.99
2022-08-18T01:53:20.927Z,99.99
2022-08-18T01:54:20.926Z,99.99
2022-08-18T01:55:20.923Z,99.99
2022-08-18T01:56:20.919Z,99.99
2022-08-18T01:57:21.283Z,99.99
2022-08-18T01:58:20.884Z,99.99
2022-08-18T01:59:20.872Z,99.99
2022-08-18T02:00:21.653Z,99.99
2022-08-18T02:01:20.927Z,99.99
2022-08-18T02:02:20.929Z,99.99
2022-08-18T02:03:21.136Z,99.99
2022-08-18T02:04:34.906Z,99.99
2022-08-18T02:05:21.783Z,99.99
2022-08-18T02:06:32.182Z,99.99
2022-08-18T02:07:21.810Z,99.99
2022-08-18T02:08:22.191Z,99.99
2022-08-18T02:09:23.873Z,99.99
2022-08-18T02:10:20.736Z,99.99
2022-08-18T02:11:20.703Z,99.99
2022-08-18T02:12:20.696Z,99.99
2022-08-18T02:13:20.691Z,99.99
2022-08-18T02:14:26.949Z,99.99
2022-08-18T02:15:21.662Z,99.99
2022-08-18T02:16:20.633Z,99.99
2022-08-18T02:17:20.632Z,99.99
2022-08-18T02:18:41.479Z,99.99
2022-08-18T02:19:22.010Z,99.99
2022-08-18T02:20:20.572Z,99.99
2022-08-18T02:21:20.572Z,99.99
2022-08-18T02:22:20.561Z,99.99
2022-08-18T02:23:20.638Z,99.99
2022-08-18T02:24:20.583Z,99.99
2022-08-18T02:25:20.911Z,99.99
2022-08-18T02:26:20.521Z,99.99
2022-08-18T02:27:20.521Z,99.99
2022-08-18T02:28:20.490Z,99.99
2022-08-18T02:29:20.460Z,99.99
2022-08-18T02:30:20.460Z,99.99
2022-08-18T02:31:20.813Z,99.99
2022-08-18T02:32:20.603Z,99.99
2022-08-18T02:33:20.805Z,99.99
2022-08-18T02:34:20.701Z,99.99
2022-08-18T02:35:20.396Z,99.99
2022-08-18T02:36:20.410Z,99.99
2022-08-18T02:37:20.689Z,99.99
2022-08-18T02:38:20.359Z,99.99
2022-08-18T02:39:20.369Z,99.99
2022-08-18T02:40:35.452Z,99.99
2022-08-18T02:41:20.306Z,99.99
2022-08-18T02:42:20.289Z,99.99
2022-08-18T02:43:20.599Z,99.99
2022-08-18T02:44:20.278Z,99.99
2022-08-18T02:45:20.258Z,99.99
2022-08-18T02:46:20.244Z,99.99
2022-08-18T02:47:20.253Z,99.99
2022-08-18T02:48:20.249Z,99.99
2022-08-18T02:49:27.946Z,99.99
2022-08-18T02:50:20.190Z,99.99
2022-08-18T02:51:20.177Z,99.99
2022-08-18T02:52:20.177Z,99.99
2022-08-18T02:53:20.169Z,99.99
2022-08-18T02:54:20.154Z,99.99
2022-08-18T02:55:20.558Z,99.99
2022-08-18T02:56:20.099Z,99.99
2022-08-18T02:57:21.107Z,99.99
2022-08-18T02:58:20.070Z,99.99
2022-08-18T02:59:20.096Z,99.99
2022-08-18T03:00:20.467Z,99.99
2022-08-18T03:01:20.072Z,99.99
2022-08-18T03:02:20.040Z,99.99
2022-08-18T03:03:20.026Z,99.99
2022-08-18T03:04:23.000Z,99.99
2022-08-18T03:05:20.981Z,99.99
2022-08-18T03:06:19.972Z,99.99
2022-08-18T03:07:19.960Z,99.99
2022-08-18T03:08:19.945Z,99.99
2022-08-18T03:09:20.402Z,99.99
2022-08-18T03:10:32.589Z,99.99
2022-08-18T03:11:20.915Z,99.99
2022-08-18T03:12:19.928Z,99.99
2022-08-18T03:13:19.882Z,99.99
2022-08-18T03:14:20.295Z,99.99
2022-08-18T03:15:20.235Z,99.99
2022-08-18T03:16:20.072Z,99.99
2022-08-18T03:17:20.124Z,99.99
2022-08-18T03:18:20.208Z,99.99
2022-08-18T03:19:20.303Z,99.99
2022-08-18T03:20:19.793Z,99.99
2022-08-18T03:21:20.784Z,99.99
2022-08-18T03:22:27.789Z,99.99
2022-08-18T03:23:20.884Z,99.99
2022-08-18T03:24:23.006Z,99.99
2022-08-18T03:25:19.743Z,99.99
2022-08-18T03:26:19.723Z,99.99
2022-08-18T03:27:19.691Z,99.99
2022-08-18T03:28:20.043Z,99.99
2022-08-18T03:29:19.693Z,99.99
2022-08-18T03:30:19.653Z,99.99
2022-08-18T03:31:20.440Z,99.99
2022-08-18T03:32:19.626Z,99.99
2022-08-18T03:33:19.634Z,99.99
2022-08-18T03:34:20.104Z,99.99
2022-08-18T03:35:19.594Z,99.99
2022-08-18T03:36:19.583Z,99.99
2022-08-18T03:37:19.581Z,99.99
2022-08-18T03:38:19.542Z,99.99
2022-08-18T03:39:19.991Z,99.99
2022-08-18T03:40:19.573Z,99.99
2022-08-18T03:41:52.338Z,99.99
2022-08-18T03:42:20.503Z,99.99
2022-08-18T03:43:23.753Z,99.99
2022-08-18T03:44:20.932Z,99.99
2022-08-18T03:45:20.176Z,99.99
2022-08-18T03:46:19.457Z,99.99
2022-08-18T03:47:19.442Z,99.99
2022-08-18T03:48:19.431Z,99.99
2022-08-18T03:49:19.453Z,99.99
2022-08-18T03:50:19.781Z,99.99
2022-08-18T03:51:19.401Z,99.99
2022-08-18T03:52:19.388Z,99.99
2022-08-18T03:53:19.411Z,99.99
2022-08-18T03:54:19.570Z,99.99
2022-08-18T03:55:19.328Z,99.99
2022-08-18T03:56:19.781Z,99.99
2022-08-18T03:57:19.331Z,99.99
2022-08-18T03:58:19.552Z,99.99
2022-08-18T03:59:19.526Z,99.99
2022-08-18T04:00:19.992Z,99.99
2022-08-18T04:01:26.256Z,99.99
2022-08-18T04:02:20.698Z,99.99
2022-08-18T04:03:19.264Z,99.99
2022-08-18T04:04:19.291Z,99.99
2022-08-18T04:05:19.210Z,99.99
2022-08-18T04:06:29.878Z,99.99
2022-08-18T04:07:20.628Z,99.99
2022-08-18T04:08:19.158Z,99.99
2022-08-18T04:09:19.161Z,99.99
2022-08-18T04:10:19.649Z,99.99
2022-08-18T04:11:19.106Z,99.99
2022-08-18T04:12:19.641Z,99.99
2022-08-18T04:13:19.141Z,99.99
2022-08-18T04:14:19.099Z,99.99
2022-08-18T04:15:19.096Z,99.99
2022-08-18T04:16:19.062Z,99.99
2022-08-18T04:17:19.477Z,99.99
2022-08-18T04:18:19.059Z,99.99
2022-08-18T04:19:22.632Z,99.99
2022-08-18T04:20:19.985Z,99.99
2022-08-18T04:21:18.987Z,99.99
2022-08-18T04:22:19.407Z,99.99
2022-08-18T04:23:18.957Z,99.99
2022-08-18T04:24:18.963Z,99.99
2022-08-18T04:25:18.955Z,99.99
2022-08-18T04:26:19.279Z,99.99
2022-08-18T04:27:19.343Z,99.99
2022-08-18T04:28:18.884Z,99.99
2022-08-18T04:29:18.885Z,99.99
2022-08-18T04:30:18.855Z,99.99
2022-08-18T04:31:18.865Z,99.99
2022-08-18T04:32:19.274Z,99.99
2022-08-18T04:33:18.874Z,99.99
2022-08-18T04:34:18.822Z,99.99
2022-08-18T04:35:18.813Z,99.99
2022-08-18T04:36:20.796Z,99.99
2022-08-18T04:37:19.203Z,99.99
2022-08-18T04:38:18.751Z,99.99
2022-08-18T04:39:18.759Z,99.99
2022-08-18T04:40:24.335Z,99.99
2022-08-18T04:41:19.733Z,99.99
2022-08-18T04:42:19.083Z,99.99
2022-08-18T04:43:18.703Z,99.99
2022-08-18T04:44:18.724Z,99.99
2022-08-18T04:45:18.682Z,99.99
2022-08-18T04:46:19.099Z,99.99
2022-08-18T04:47:19.652Z,99.99
2022-08-18T04:48:18.629Z,99.99
2022-08-18T04:49:18.649Z,99.99
2022-08-18T04:50:18.610Z,99.99
2022-08-18T04:52:32.063Z,99.99
2022-08-18T04:52:36.460Z,99.99
2022-08-18T04:53:19.581Z,99.99
2022-08-18T04:54:18.563Z,99.99
2022-08-18T04:55:19.391Z,99.99
2022-08-18T04:56:19.002Z,99.99
2022-08-18T04:57:26.795Z,99.99
2022-08-18T04:58:18.522Z,99.99
2022-08-18T04:59:18.495Z,99.99
2022-08-18T05:00:18.479Z,99.99
2022-08-18T05:01:26.215Z,99.99
2022-08-18T05:02:18.495Z,99.99
2022-08-18T05:03:18.446Z,99.99
2022-08-18T05:04:18.507Z,99.99
2022-08-18T05:05:18.419Z,99.99
2022-08-18T05:06:18.748Z,99.99
2022-08-18T05:07:18.406Z,99.99
2022-08-18T05:08:18.367Z,99.60
2022-08-18T05:09:23.033Z,99.60
2022-08-18T05:10:19.729Z,99.40
2022-08-18T05:11:18.316Z,98.99
2022-08-18T05:12:18.333Z,98.65
2022-08-18T05:13:18.287Z,98.24
2022-08-18T05:14:18.285Z,98.44
2022-08-18T05:15:18.285Z,98.14
2022-08-18T05:16:27.205Z,97.89
2022-08-18T05:17:19.238Z,97.89
2022-08-18T05:18:18.237Z,97.89
2022-08-18T05:19:19.416Z,97.69
2022-08-18T05:20:18.243Z,97.69
2022-08-18T05:21:18.694Z,97.49
2022-08-18T05:22:18.378Z,97.39
2022-08-18T05:23:18.225Z,97.09
2022-08-18T05:24:18.163Z,97.39
2022-08-18T05:25:18.153Z,97.39
2022-08-18T05:26:18.133Z,96.78
2022-08-18T05:27:18.453Z,96.69
2022-08-18T05:28:18.126Z,96.98
2022-08-18T05:29:19.761Z,97.09
2022-08-18T05:30:18.090Z,97.24
2022-08-18T05:31:18.075Z,97.24
2022-08-18T05:32:30.430Z,97.33
2022-08-18T05:33:19.455Z,97.24
2022-08-18T05:34:18.044Z,97.44
2022-08-18T05:35:17.995Z,97.24
2022-08-18T05:36:18.354Z,97.09
2022-08-18T05:37:18.128Z,97.29
2022-08-18T05:38:18.091Z,97.19
2022-08-18T05:39:18.334Z,96.89
2022-08-18T05:40:18.015Z,96.98
2022-08-18T05:41:17.930Z,97.19
2022-08-18T05:42:17.925Z,96.48
2022-08-18T05:43:18.292Z,96.69
2022-08-18T05:44:17.933Z,96.54
2022-08-18T05:45:17.871Z,96.24
2022-08-18T05:46:17.856Z,95.94
2022-08-18T05:47:17.871Z,95.73
2022-08-18T05:48:17.918Z,95.89
2022-08-18T05:49:18.311Z,94.68
2022-08-18T05:50:17.821Z,94.89
2022-08-18T05:51:17.832Z,95.09
2022-08-18T05:52:17.853Z,94.48
2022-08-18T05:53:17.873Z,94.28
2022-08-18T05:54:18.224Z,93.58
2022-08-18T05:55:17.752Z,93.98
2022-08-18T05:56:17.752Z,93.33
2022-08-18T05:57:17.893Z,92.73
2022-08-18T05:58:18.051Z,92.83
2022-08-18T05:59:17.703Z,92.58
2022-08-18T06:00:18.052Z,92.18
2022-08-18T06:01:17.678Z,91.94
2022-08-18T06:02:17.690Z,91.54
2022-08-18T06:03:17.739Z,90.13
2022-08-18T06:04:18.004Z,90.03
2022-08-18T06:05:17.593Z,90.09
2022-08-18T06:06:25.822Z,91.50
2022-08-18T06:07:17.586Z,92.10
2022-08-18T06:08:17.647Z,90.89
2022-08-18T06:09:18.050Z,91.05
2022-08-18T06:10:17.656Z,90.85
2022-08-18T06:11:22.556Z,90.15
2022-08-18T06:12:18.534Z,89.54
2022-08-18T06:13:17.533Z,90.05
2022-08-18T06:14:17.492Z,90.15
2022-08-18T06:15:17.844Z,90.55
2022-08-18T06:16:17.474Z,89.25
2022-08-18T06:17:17.476Z,88.10
2022-08-18T06:18:17.475Z,87.00
2022-08-18T06:19:17.426Z,86.41
2022-08-18T06:20:17.434Z,85.97
2022-08-18T06:21:17.794Z,84.63
2022-08-18T06:22:17.369Z,83.05
2022-08-18T06:23:17.423Z,82.91
2022-08-18T06:24:17.447Z,81.57
2022-08-18T06:25:17.905Z,79.72
2022-08-18T06:26:17.334Z,80.65
2022-08-18T06:27:17.754Z,81.15
2022-08-18T06:28:17.303Z,81.99
2022-08-18T06:29:17.290Z,82.89
2022-08-18T06:30:17.275Z,82.79
2022-08-18T06:31:17.304Z,82.39
2022-08-18T06:32:17.301Z,82.79
2022-08-18T06:33:17.232Z,83.69
2022-08-18T06:34:17.233Z,84.09
2022-08-18T06:35:17.203Z,83.49
2022-08-18T06:36:18.769Z,82.79
2022-08-18T06:37:17.189Z,82.99
2022-08-18T06:38:17.613Z,83.39
2022-08-18T06:39:17.183Z,83.59
2022-08-18T06:40:17.187Z,83.49
2022-08-18T06:41:42.354Z,83.05
2022-08-18T06:42:18.124Z,81.95
2022-08-18T06:43:17.127Z,81.85
2022-08-18T06:44:17.443Z,82.45
2022-08-18T06:45:17.103Z,81.95
2022-08-18T06:46:17.073Z,80.41
2022-08-18T06:47:17.083Z,80.38
2022-08-18T06:48:17.042Z,80.18
2022-08-18T06:49:17.633Z,80.54
2022-08-18T06:50:17.033Z,80.24
2022-08-18T06:51:17.011Z,79.58
2022-08-18T06:52:17.043Z,80.27
2022-08-18T06:53:27.426Z,80.27
2022-08-18T06:54:18.012Z,80.21
2022-08-18T06:55:17.443Z,80.11
2022-08-18T06:56:26.045Z,80.71
2022-08-18T06:57:18.001Z,80.82
2022-08-18T06:58:17.135Z,81.21
2022-08-18T06:59:16.915Z,81.92
2022-08-18T07:00:16.939Z,80.98
2022-08-18T07:01:16.945Z,80.98
2022-08-18T07:02:16.899Z,80.04
2022-08-18T07:03:16.870Z,78.80
2022-08-18T07:04:16.844Z,78.41
2022-08-18T07:05:17.233Z,77.11
2022-08-18T07:06:16.834Z,78.84
2022-08-18T07:07:16.792Z,77.88
2022-08-18T07:08:18.634Z,79.75
2022-08-18T07:09:16.755Z,80.55
2022-08-18T07:10:17.148Z,81.19
2022-08-18T07:11:24.937Z,82.43
2022-08-18T07:12:26.735Z,81.93
2022-08-18T07:13:23.961Z,82.43
2022-08-18T07:14:24.952Z,82.93
2022-08-18T07:15:27.518Z,81.53
2022-08-18T07:16:20.514Z,81.53
2022-08-18T07:18:27.224Z,81.49
2022-08-18T07:19:34.981Z,81.15
2022-08-18T07:20:35.788Z,81.25
2022-08-18T07:21:34.994Z,80.71
2022-08-18T07:22:38.892Z,79.48
2022-08-18T07:23:27.792Z,80.88
2022-08-18T07:24:26.789Z,80.04
2022-08-18T07:25:26.794Z,78.50
2022-08-18T07:26:26.782Z,78.30
2022-08-18T07:27:26.861Z,78.70
2022-08-18T07:28:26.911Z,78.90
2022-08-18T07:29:26.719Z,77.61
2022-08-18T07:30:27.159Z,78.50
2022-08-18T07:31:26.710Z,78.30
2022-08-18T07:32:26.678Z,77.70
2022-08-18T07:33:26.711Z,78.64
2022-08-18T07:34:27.065Z,78.84
2022-08-18T07:35:26.638Z,78.48
2022-08-18T07:36:26.629Z,79.08
2022-08-18T07:37:28.845Z,79.68
2022-08-18T07:38:41.983Z,79.97
2022-08-18T07:39:27.725Z,79.52
2022-08-18T07:40:26.588Z,80.11
2022-08-18T07:41:26.559Z,80.51
2022-08-18T07:42:37.194Z,80.85
2022-08-18T07:43:27.586Z,81.25
2022-08-18T07:44:26.740Z,81.15
2022-08-18T07:45:26.569Z,81.19
2022-08-18T07:46:26.531Z,82.09
2022-08-18T07:47:26.489Z,81.99
2022-08-18T07:48:38.098Z,82.29
2022-08-18T07:49:27.527Z,82.83
2022-08-18T07:50:42.142Z,82.93
2022-08-18T07:51:31.754Z,83.43
2022-08-18T07:52:44.502Z,83.57
2022-08-18T07:53:27.435Z,84.37
2022-08-18T07:54:48.306Z,83.97
2022-08-18T07:55:27.430Z,84.77
2022-08-18T07:56:26.365Z,85.11
2022-08-18T07:57:26.402Z,85.31
2022-08-18T07:58:26.417Z,85.85
2022-08-18T07:59:26.329Z,86.96
2022-08-18T08:00:55.259Z,86.96
2022-08-18T08:01:27.399Z,86.40
2022-08-18T08:02:26.306Z,87.00
2022-08-18T08:03:26.304Z,87.30
2022-08-18T08:04:26.737Z,87.50
2022-08-18T08:05:26.280Z,87.00
2022-08-18T08:06:26.250Z,86.90
2022-08-18T08:07:26.376Z,87.14
2022-08-18T08:08:26.224Z,87.24
2022-08-18T08:09:26.218Z,87.84
2022-08-18T08:10:26.633Z,87.74
2022-08-18T08:11:26.177Z,87.84
2022-08-18T08:12:26.178Z,88.04
2022-08-18T08:13:43.766Z,88.54
2022-08-18T08:14:27.127Z,88.34
2022-08-18T08:15:26.850Z,88.75
2022-08-18T08:16:26.556Z,88.44
2022-08-18T08:17:26.086Z,88.44
2022-08-18T08:18:26.097Z,88.14
2022-08-18T08:19:49.249Z,88.14
2022-08-18T08:20:31.980Z,87.64
2022-08-18T08:21:27.086Z,87.34
2022-08-18T08:22:26.415Z,87.84
2022-08-18T08:23:26.015Z,88.54
2022-08-18T08:24:25.996Z,88.50
2022-08-18T08:25:44.557Z,88.10
2022-08-18T08:26:27.406Z,87.00
2022-08-18T08:27:26.395Z,86.80
2022-08-18T08:28:25.958Z,87.20
2022-08-18T08:29:25.936Z,87.10
2022-08-18T08:30:26.119Z,86.69
2022-08-18T08:31:36.775Z,86.19
2022-08-18T08:32:27.247Z,85.80
2022-08-18T08:33:25.895Z,86.80
2022-08-18T08:34:25.866Z,86.55
2022-08-18T08:35:48.708Z,86.96
2022-08-18T08:36:26.849Z,87.86
2022-08-18T08:37:26.263Z,88.62
2022-08-18T08:38:42.415Z,87.02
2022-08-18T08:39:26.926Z,86.91
2022-08-18T08:40:25.793Z,86.68
2022-08-18T08:41:25.778Z,86.68
2022-08-18T08:42:31.874Z,85.83
2022-08-18T08:43:26.807Z,84.89
2022-08-18T08:44:25.804Z,83.69
2022-08-18T08:45:25.714Z,83.25
2022-08-18T08:46:25.715Z,83.31
2022-08-18T08:47:26.123Z,81.07
2022-08-18T08:48:25.725Z,80.24
2022-08-18T08:49:25.683Z,79.60
2022-08-18T08:50:25.663Z,80.00
2022-08-18T08:51:26.823Z,78.70
2022-08-18T08:52:26.104Z,78.97
2022-08-18T08:53:25.634Z,78.92
2022-08-18T08:54:25.624Z,76.83
2022-08-18T08:55:25.686Z,76.40
2022-08-18T08:56:25.623Z,75.37
2022-08-18T08:57:26.005Z,75.23
2022-08-18T08:58:25.571Z,74.33
2022-08-18T08:59:25.573Z,74.13
2022-08-18T09:00:25.525Z,73.50
2022-08-18T09:01:25.571Z,73.11
2022-08-18T09:02:46.617Z,74.50
2022-08-18T09:03:30.249Z,71.81
2022-08-18T09:04:25.483Z,70.82
2022-08-18T09:05:25.465Z,72.25
2022-08-18T09:06:25.458Z,74.13
2022-08-18T09:07:25.484Z,73.41
2022-08-18T09:08:25.444Z,73.67
2022-08-18T09:09:25.423Z,72.58
2022-08-18T09:10:25.401Z,71.18
2022-08-18T09:11:25.814Z,72.04
2022-08-18T09:12:25.386Z,70.55
2022-08-18T09:13:29.041Z,70.12
2022-08-18T09:14:25.389Z,69.36
2022-08-18T09:15:25.353Z,68.86
2022-08-18T09:16:27.673Z,68.90
2022-08-18T09:17:34.032Z,69.99
2022-08-18T09:18:26.312Z,69.79
2022-08-18T09:19:25.285Z,70.39
2022-08-18T09:20:25.273Z,71.08
2022-08-18T09:21:25.612Z,71.08
2022-08-18T09:22:25.242Z,70.48
2022-08-18T09:23:25.257Z,70.09
2022-08-18T09:24:25.256Z,70.29
2022-08-18T09:25:25.201Z,68.76
2022-08-18T09:26:25.524Z,69.09
2022-08-18T09:27:25.176Z,70.32
2022-08-18T09:28:25.183Z,68.70
2022-08-18T09:29:25.164Z,68.60
2022-08-18T09:30:25.165Z,69.06
2022-08-18T09:31:25.516Z,69.13
2022-08-18T09:32:25.126Z,68.63
2022-08-18T09:33:25.114Z,68.96
2022-08-18T09:34:25.114Z,69.96
2022-08-18T09:35:25.104Z,70.25
2022-08-18T09:36:25.929Z,69.16
2022-08-18T09:37:25.054Z,69.32
2022-08-18T09:38:26.032Z,70.45
2022-08-18T09:39:25.057Z,70.49
2022-08-18T09:40:38.910Z,71.75
2022-08-18T09:41:26.023Z,70.45
2022-08-18T09:42:29.922Z,71.25
2022-08-18T09:43:25.989Z,71.15
2022-08-18T09:44:27.018Z,70.75
2022-08-18T09:45:28.638Z,70.95
2022-08-18T09:46:25.955Z,70.45
2022-08-18T09:48:28.257Z,72.11
2022-08-18T09:49:24.915Z,73.31
2022-08-18T09:50:27.025Z,72.18
2022-08-18T09:50:37.285Z,71.92
2022-08-18T09:51:25.150Z,72.18
2022-08-18T09:52:25.388Z,72.28
2022-08-18T09:53:24.843Z,72.68
2022-08-18T09:54:25.060Z,72.64
2022-08-18T09:55:25.184Z,71.84
2022-08-18T09:56:28.621Z,71.12
2022-08-18T09:57:24.794Z,70.92
2022-08-18T09:58:25.755Z,70.48
2022-08-18T09:59:24.780Z,70.25
2022-08-18T10:00:28.072Z,69.36
2022-08-18T10:01:24.811Z,69.46
2022-08-18T10:02:28.221Z,69.43
2022-08-18T10:03:25.666Z,69.29
2022-08-18T10:04:29.254Z,68.73
2022-08-18T10:05:25.015Z,70.42
2022-08-18T10:07:25.706Z,70.09
2022-08-18T10:08:24.658Z,69.20
2022-08-18T10:09:36.115Z,69.20
2022-08-18T10:11:00.548Z,68.70
2022-08-18T10:11:25.614Z,68.50
2022-08-18T10:12:27.265Z,69.89
2022-08-18T10:13:25.148Z,69.43
2022-08-18T10:14:24.585Z,69.32
2022-08-18T10:15:32.901Z,69.26
2022-08-18T10:16:25.548Z,70.45
2022-08-18T10:17:24.746Z,70.32
2022-08-18T10:18:24.520Z,70.12
2022-08-18T10:19:33.679Z,69.79
2022-08-18T10:20:27.061Z,69.16
2022-08-18T10:21:24.711Z,68.24
2022-08-18T10:22:35.373Z,68.73
2022-08-18T10:23:25.465Z,68.13
2022-08-18T10:24:36.292Z,66.91
2022-08-18T10:25:25.424Z,67.11
2022-08-18T10:26:24.764Z,67.34
2022-08-18T10:27:24.407Z,67.97
2022-08-18T10:28:24.418Z,67.97
2022-08-18T10:29:24.384Z,69.09
2022-08-18T10:30:24.396Z,68.57
2022-08-18T10:31:27.197Z,68.37
2022-08-18T10:32:24.352Z,68.80
2022-08-18T10:33:24.397Z,69.59
2022-08-18T10:34:24.701Z,68.96
2022-08-18T10:35:32.519Z,67.54
2022-08-18T10:36:25.333Z,68.30
2022-08-18T10:37:26.126Z,69.85
2022-08-18T10:38:24.285Z,70.12
2022-08-18T10:39:24.263Z,70.78
2022-08-18T10:40:26.488Z,69.29
2022-08-18T10:41:24.251Z,70.65
2022-08-18T10:42:24.229Z,70.81
2022-08-18T10:43:45.487Z,69.89
2022-08-18T10:44:29.507Z,70.29
2022-08-18T10:45:24.884Z,69.29
2022-08-18T10:46:25.745Z,69.39
2022-08-18T10:48:26.735Z,68.53
2022-08-18T10:49:24.954Z,68.50
2022-08-18T10:50:24.114Z,68.07
2022-08-18T10:51:24.104Z,67.08
2022-08-18T10:52:24.104Z,67.31
2022-08-18T10:53:41.120Z,67.74
2022-08-18T10:54:25.131Z,67.84
2022-08-18T10:55:24.055Z,68.93
2022-08-18T10:56:26.718Z,69.49
2022-08-18T10:57:24.070Z,70.15
2022-08-18T10:58:24.075Z,68.96
2022-08-18T11:00:25.327Z,66.68
2022-08-18T11:01:23.975Z,67.71
2022-08-18T11:02:23.953Z,67.61
2022-08-18T11:03:52.115Z,67.47
2022-08-18T11:04:34.160Z,67.84
2022-08-18T11:05:24.941Z,68.46
2022-08-18T11:06:23.921Z,69.26
2022-08-18T11:07:23.922Z,69.20
2022-08-18T11:08:23.894Z,69.92
2022-08-18T11:09:23.887Z,69.92
2022-08-18T11:10:30.835Z,70.72
2022-08-18T11:11:37.623Z,70.52
2022-08-18T11:12:24.831Z,70.95
2022-08-18T11:13:23.838Z,70.75
2022-08-18T11:14:23.832Z,70.32
2022-08-18T11:15:24.099Z,69.39
2022-08-18T11:16:24.105Z,69.65
2022-08-18T11:17:24.110Z,69.13
2022-08-18T11:18:23.776Z,69.20
2022-08-18T11:19:23.755Z,68.01
2022-08-18T11:20:24.465Z,67.50
2022-08-18T11:21:23.713Z,67.21
2022-08-18T11:22:31.368Z,66.75
2022-08-18T11:23:24.701Z,66.85
2022-08-18T11:24:23.713Z,66.91
2022-08-18T11:25:23.661Z,66.69
2022-08-18T11:26:23.664Z,65.83
2022-08-18T11:27:23.665Z,66.32
2022-08-18T11:28:30.248Z,65.86
2022-08-18T11:29:24.632Z,66.35
2022-08-18T11:30:31.057Z,66.65
2022-08-18T11:31:24.574Z,66.68
2022-08-18T11:32:23.573Z,65.99
2022-08-18T11:33:24.580Z,66.68
2022-08-18T11:34:23.885Z,66.88
2022-08-18T11:35:23.524Z,66.88
2022-08-18T11:36:23.525Z,66.28
2022-08-18T11:37:23.516Z,66.88
2022-08-18T11:38:23.775Z,65.76
2022-08-18T11:39:35.959Z,65.33
2022-08-18T11:41:10.962Z,64.31
2022-08-18T11:41:24.538Z,64.11
2022-08-18T11:42:25.228Z,64.58
2022-08-18T11:43:23.835Z,65.17
2022-08-18T11:44:23.716Z,65.53
2022-08-18T11:45:24.883Z,63.56
2022-08-18T11:47:28.056Z,63.32
2022-08-18T11:48:29.735Z,64.64
2022-08-18T11:49:26.489Z,65.73
2022-08-18T11:50:23.358Z,64.94
2022-08-18T11:51:23.543Z,65.20
2022-08-18T11:53:24.334Z,62.50
2022-08-18T11:54:24.775Z,63.42
2022-08-18T11:55:24.365Z,62.19
2022-08-18T11:57:24.261Z,62.59
2022-08-18T11:58:23.260Z,62.16
2022-08-18T11:59:24.217Z,61.57
2022-08-18T12:00:24.634Z,62.43
2022-08-18T12:01:23.224Z,61.15
2022-08-18T12:02:23.218Z,61.94
2022-08-18T12:03:23.184Z,61.83
2022-08-18T12:04:23.602Z,61.61
2022-08-18T12:05:23.167Z,62.01
2022-08-18T12:06:26.620Z,61.51
2022-08-18T12:07:23.140Z,61.18
2022-08-18T12:08:54.607Z,60.89
2022-08-18T12:10:07.389Z,61.29
2022-08-18T12:10:28.805Z,60.27
2022-08-18T12:12:33.256Z,58.86
2022-08-18T12:13:41.347Z,58.86
2022-08-18T12:14:40.328Z,59.22
2022-08-18T12:17:52.842Z,59.38
2022-08-18T12:18:50.425Z,60.19
2022-08-18T12:19:50.704Z,60.79
2022-08-18T12:20:51.321Z,60.76
2022-08-18T12:21:50.332Z,59.80
2022-08-18T12:22:50.354Z,60.42
2022-08-18T12:23:52.589Z,60.72
2022-08-18T12:24:50.332Z,60.65
2022-08-18T12:25:51.694Z,61.27
2022-08-18T12:26:50.348Z,62.56
2022-08-18T12:27:50.256Z,62.39
2022-08-18T12:28:50.281Z,62.66
2022-08-18T12:29:50.510Z,62.56
2022-08-18T12:30:57.048Z,62.56
2022-08-18T12:34:01.491Z,62.95
2022-08-18T12:35:07.175Z,63.74
2022-08-18T12:37:14.322Z,63.18
2022-08-18T12:38:14.397Z,63.18
2022-08-18T12:39:12.585Z,62.49
2022-08-18T12:40:13.674Z,62.88
2022-08-18T12:41:12.523Z,62.59
2022-08-18T12:42:12.911Z,62.19
2022-08-18T12:43:12.489Z,62.10
2022-08-18T12:44:13.035Z,62.39
2022-08-18T12:45:13.476Z,63.09
2022-08-18T12:46:13.450Z,63.28
2022-08-18T12:47:12.406Z,62.69
2022-08-18T12:48:12.734Z,61.67
2022-08-18T12:49:14.383Z,61.07
2022-08-18T12:50:12.401Z,61.67
2022-08-18T12:51:12.424Z,61.70
2022-08-18T12:52:14.106Z,62.56
2022-08-18T12:53:13.668Z,61.57
2022-08-18T12:54:13.381Z,61.05
2022-08-18T12:55:21.745Z,61.31
2022-08-18T12:56:06.335Z,60.52
2022-08-18T12:57:06.657Z,59.90
2022-08-18T12:58:05.319Z,59.67
2022-08-18T12:59:05.695Z,58.29
2022-08-18T13:00:05.359Z,58.19
2022-08-18T13:01:05.278Z,57.79
2022-08-18T13:02:05.239Z,57.53
2022-08-18T13:03:05.216Z,58.61
2022-08-18T13:04:13.133Z,58.45
2022-08-18T13:05:06.549Z,59.04
2022-08-18T13:06:05.176Z,59.14